﻿<?xml version="1.0" encoding="UTF-8" standalone="no" ?>
<gpx xmlns="http://www.topografix.com/GPX/1/1" creator="CompeGPS" version="1.1" xmlns:xsi="http://www.w3.org/2001/XMLSchema-instance" xsi:schemaLocation="http://www.topografix.com/GPX/1/1 http://www.topografix.com/GPX/1/1/gpx.xsd http://www.garmin.com/xmlschemas/GpxExtensions/v3 http://www.garmin.com/xmlschemas/GpxExtensionsv3.xsd http://www.garmin.com/xmlschemas/TrackPointExtension/v1 http://www.garmin.com/xmlschemas/TrackPointExtensionv1.xsd" xmlns:gpxtpx="http://www.garmin.com/xmlschemas/TrackPointExtension/v1">
  <metadata>
    <link href="http://www.compegps.com">
      <text>CompeGPS TEAM, SL</text>
    </link>
    <time>2013-03-19T21:37:24Z</time>
    <bounds maxlat="42.968707" maxlon="0.492163" minlat="42.952237" minlon="0.467604"/>
  </metadata>
<wpt lat="42.968707" lon="0.467622">
  <ele>1360</ele>
  <name>Parking Artigous</name>
</wpt>
<wpt lat="42.963265" lon="0.477638">
  <ele>1400</ele>
  <name>Ruis. de Hourcadere</name>
</wpt>
<wpt lat="42.966579" lon="0.492144">
  <ele>1630</ele>
  <name>Pic de Douly</name>
</wpt>
<wpt lat="42.963050" lon="0.485578">
  <ele>1601</ele>
  <name>Pic de Belloc</name>
</wpt>
<wpt lat="42.952237" lon="0.478433">
  <ele>1849</ele>
  <name>Pic de Mont Aspet</name>
</wpt>
<wpt lat="42.958835" lon="0.477133">
  <ele>1629</ele>
  <name>Cab. de la Prade</name>
</wpt>
<wpt lat="42.962510" lon="0.471138">
  <ele>1550</ele>
  <name>Cul de la Serre</name>
</wpt>
  <trk>
    <name>Pic de Mont Aspet</name>
    <trkseg>
      <trkpt lat="42.968707" lon="0.467622">
        <ele>1361.4</ele>
        <time>2013-03-19T07:52:07Z</time>
        <name>Parking Artigous</name>
      </trkpt>
      <trkpt lat="42.968665" lon="0.467658">
        <ele>1363.3</ele>
        <time>2013-03-19T07:54:12Z</time>
      </trkpt>
      <trkpt lat="42.968660" lon="0.467727">
        <ele>1362.8</ele>
        <time>2013-03-19T07:55:51Z</time>
      </trkpt>
      <trkpt lat="42.968641" lon="0.467856">
        <ele>1363.3</ele>
        <time>2013-03-19T07:56:07Z</time>
      </trkpt>
      <trkpt lat="42.968640" lon="0.467987">
        <ele>1363.8</ele>
        <time>2013-03-19T07:56:18Z</time>
      </trkpt>
      <trkpt lat="42.968646" lon="0.468120">
        <ele>1364.7</ele>
        <time>2013-03-19T07:56:28Z</time>
      </trkpt>
      <trkpt lat="42.968634" lon="0.468252">
        <ele>1366.2</ele>
        <time>2013-03-19T07:56:38Z</time>
      </trkpt>
      <trkpt lat="42.968614" lon="0.468378">
        <ele>1366.7</ele>
        <time>2013-03-19T07:56:48Z</time>
      </trkpt>
      <trkpt lat="42.968529" lon="0.468494">
        <ele>1367.6</ele>
        <time>2013-03-19T07:57:01Z</time>
      </trkpt>
      <trkpt lat="42.968453" lon="0.468588">
        <ele>1367.6</ele>
        <time>2013-03-19T07:57:13Z</time>
      </trkpt>
      <trkpt lat="42.968366" lon="0.468660">
        <ele>1368.1</ele>
        <time>2013-03-19T07:57:25Z</time>
      </trkpt>
      <trkpt lat="42.968258" lon="0.468739">
        <ele>1368.1</ele>
        <time>2013-03-19T07:57:38Z</time>
      </trkpt>
      <trkpt lat="42.968134" lon="0.468722">
        <ele>1368.1</ele>
        <time>2013-03-19T07:57:51Z</time>
      </trkpt>
      <trkpt lat="42.968014" lon="0.468672">
        <ele>1367.6</ele>
        <time>2013-03-19T07:58:45Z</time>
      </trkpt>
      <trkpt lat="42.967904" lon="0.468720">
        <ele>1367.1</ele>
        <time>2013-03-19T07:58:57Z</time>
      </trkpt>
      <trkpt lat="42.967785" lon="0.468756">
        <ele>1366.2</ele>
        <time>2013-03-19T07:59:08Z</time>
      </trkpt>
      <trkpt lat="42.967694" lon="0.468795">
        <ele>1365.7</ele>
        <time>2013-03-19T07:59:18Z</time>
      </trkpt>
      <trkpt lat="42.967582" lon="0.468845">
        <ele>1364.7</ele>
        <time>2013-03-19T07:59:30Z</time>
      </trkpt>
      <trkpt lat="42.967471" lon="0.468939">
        <ele>1363.8</ele>
        <time>2013-03-19T07:59:41Z</time>
      </trkpt>
      <trkpt lat="42.967384" lon="0.469023">
        <ele>1362.3</ele>
        <time>2013-03-19T07:59:50Z</time>
      </trkpt>
      <trkpt lat="42.967276" lon="0.469107">
        <ele>1361.8</ele>
        <time>2013-03-19T08:00:00Z</time>
      </trkpt>
      <trkpt lat="42.967201" lon="0.469198">
        <ele>1360.9</ele>
        <time>2013-03-19T08:00:09Z</time>
      </trkpt>
      <trkpt lat="42.967130" lon="0.469295">
        <ele>1360.9</ele>
        <time>2013-03-19T08:00:18Z</time>
      </trkpt>
      <trkpt lat="42.967066" lon="0.469406">
        <ele>1360.4</ele>
        <time>2013-03-19T08:00:27Z</time>
      </trkpt>
      <trkpt lat="42.967011" lon="0.469524">
        <ele>1359.9</ele>
        <time>2013-03-19T08:00:37Z</time>
      </trkpt>
      <trkpt lat="42.966967" lon="0.469646">
        <ele>1359.4</ele>
        <time>2013-03-19T08:00:47Z</time>
      </trkpt>
      <trkpt lat="42.966927" lon="0.469761">
        <ele>1359.0</ele>
        <time>2013-03-19T08:00:56Z</time>
      </trkpt>
      <trkpt lat="42.966894" lon="0.469896">
        <ele>1359.4</ele>
        <time>2013-03-19T08:01:06Z</time>
      </trkpt>
      <trkpt lat="42.966831" lon="0.470049">
        <ele>1360.4</ele>
        <time>2013-03-19T08:01:17Z</time>
      </trkpt>
      <trkpt lat="42.966797" lon="0.470189">
        <ele>1360.9</ele>
        <time>2013-03-19T08:01:27Z</time>
      </trkpt>
      <trkpt lat="42.966750" lon="0.470316">
        <ele>1360.9</ele>
        <time>2013-03-19T08:01:36Z</time>
      </trkpt>
      <trkpt lat="42.966702" lon="0.470461">
        <ele>1361.8</ele>
        <time>2013-03-19T08:01:47Z</time>
      </trkpt>
      <trkpt lat="42.966653" lon="0.470602">
        <ele>1362.3</ele>
        <time>2013-03-19T08:01:57Z</time>
      </trkpt>
      <trkpt lat="42.966624" lon="0.470772">
        <ele>1362.3</ele>
        <time>2013-03-19T08:02:08Z</time>
      </trkpt>
      <trkpt lat="42.966601" lon="0.470936">
        <ele>1363.3</ele>
        <time>2013-03-19T08:02:20Z</time>
      </trkpt>
      <trkpt lat="42.966572" lon="0.471118">
        <ele>1364.7</ele>
        <time>2013-03-19T08:02:31Z</time>
      </trkpt>
      <trkpt lat="42.966555" lon="0.471251">
        <ele>1365.2</ele>
        <time>2013-03-19T08:02:40Z</time>
      </trkpt>
      <trkpt lat="42.966521" lon="0.471404">
        <ele>1365.2</ele>
        <time>2013-03-19T08:02:51Z</time>
      </trkpt>
      <trkpt lat="42.966498" lon="0.471561">
        <ele>1365.7</ele>
        <time>2013-03-19T08:03:02Z</time>
      </trkpt>
      <trkpt lat="42.966484" lon="0.471729">
        <ele>1366.2</ele>
        <time>2013-03-19T08:03:13Z</time>
      </trkpt>
      <trkpt lat="42.966451" lon="0.471875">
        <ele>1366.7</ele>
        <time>2013-03-19T08:03:24Z</time>
      </trkpt>
      <trkpt lat="42.966409" lon="0.472012">
        <ele>1367.1</ele>
        <time>2013-03-19T08:03:34Z</time>
      </trkpt>
      <trkpt lat="42.966366" lon="0.472170">
        <ele>1368.1</ele>
        <time>2013-03-19T08:03:44Z</time>
      </trkpt>
      <trkpt lat="42.966321" lon="0.472324">
        <ele>1368.1</ele>
        <time>2013-03-19T08:03:55Z</time>
      </trkpt>
      <trkpt lat="42.966268" lon="0.472456">
        <ele>1369.1</ele>
        <time>2013-03-19T08:04:05Z</time>
      </trkpt>
      <trkpt lat="42.966221" lon="0.472591">
        <ele>1369.1</ele>
        <time>2013-03-19T08:04:15Z</time>
      </trkpt>
      <trkpt lat="42.966122" lon="0.472698">
        <ele>1370.5</ele>
        <time>2013-03-19T08:04:28Z</time>
      </trkpt>
      <trkpt lat="42.966003" lon="0.472728">
        <ele>1370.5</ele>
        <time>2013-03-19T08:04:38Z</time>
      </trkpt>
      <trkpt lat="42.965878" lon="0.472749">
        <ele>1371.5</ele>
        <time>2013-03-19T08:04:48Z</time>
      </trkpt>
      <trkpt lat="42.965771" lon="0.472786">
        <ele>1372.4</ele>
        <time>2013-03-19T08:04:58Z</time>
      </trkpt>
      <trkpt lat="42.965666" lon="0.472812">
        <ele>1372.4</ele>
        <time>2013-03-19T08:05:07Z</time>
      </trkpt>
      <trkpt lat="42.965577" lon="0.472876">
        <ele>1373.4</ele>
        <time>2013-03-19T08:05:16Z</time>
      </trkpt>
      <trkpt lat="42.965498" lon="0.472954">
        <ele>1373.9</ele>
        <time>2013-03-19T08:05:25Z</time>
      </trkpt>
      <trkpt lat="42.965417" lon="0.473026">
        <ele>1374.8</ele>
        <time>2013-03-19T08:05:37Z</time>
      </trkpt>
      <trkpt lat="42.965341" lon="0.473122">
        <ele>1375.8</ele>
        <time>2013-03-19T08:05:48Z</time>
      </trkpt>
      <trkpt lat="42.965246" lon="0.473184">
        <ele>1375.8</ele>
        <time>2013-03-19T08:05:58Z</time>
      </trkpt>
      <trkpt lat="42.965136" lon="0.473252">
        <ele>1375.8</ele>
        <time>2013-03-19T08:06:08Z</time>
      </trkpt>
      <trkpt lat="42.965069" lon="0.473366">
        <ele>1376.3</ele>
        <time>2013-03-19T08:06:18Z</time>
      </trkpt>
      <trkpt lat="42.964999" lon="0.473488">
        <ele>1376.3</ele>
        <time>2013-03-19T08:06:28Z</time>
      </trkpt>
      <trkpt lat="42.964917" lon="0.473617">
        <ele>1376.3</ele>
        <time>2013-03-19T08:06:39Z</time>
      </trkpt>
      <trkpt lat="42.964860" lon="0.473723">
        <ele>1376.8</ele>
        <time>2013-03-19T08:06:49Z</time>
      </trkpt>
      <trkpt lat="42.964840" lon="0.473835">
        <ele>1377.2</ele>
        <time>2013-03-19T08:06:59Z</time>
      </trkpt>
      <trkpt lat="42.964787" lon="0.473971">
        <ele>1377.2</ele>
        <time>2013-03-19T08:07:08Z</time>
      </trkpt>
      <trkpt lat="42.964724" lon="0.474112">
        <ele>1377.7</ele>
        <time>2013-03-19T08:07:17Z</time>
      </trkpt>
      <trkpt lat="42.964626" lon="0.474208">
        <ele>1378.2</ele>
        <time>2013-03-19T08:07:27Z</time>
      </trkpt>
      <trkpt lat="42.964521" lon="0.474301">
        <ele>1378.2</ele>
        <time>2013-03-19T08:07:38Z</time>
      </trkpt>
      <trkpt lat="42.964441" lon="0.474437">
        <ele>1378.2</ele>
        <time>2013-03-19T08:07:50Z</time>
      </trkpt>
      <trkpt lat="42.964365" lon="0.474562">
        <ele>1378.7</ele>
        <time>2013-03-19T08:08:01Z</time>
      </trkpt>
      <trkpt lat="42.964314" lon="0.474689">
        <ele>1380.1</ele>
        <time>2013-03-19T08:08:11Z</time>
      </trkpt>
      <trkpt lat="42.964255" lon="0.474838">
        <ele>1380.6</ele>
        <time>2013-03-19T08:08:22Z</time>
      </trkpt>
      <trkpt lat="42.964212" lon="0.474974">
        <ele>1381.6</ele>
        <time>2013-03-19T08:08:33Z</time>
      </trkpt>
      <trkpt lat="42.964177" lon="0.475122">
        <ele>1383.0</ele>
        <time>2013-03-19T08:08:45Z</time>
      </trkpt>
      <trkpt lat="42.964118" lon="0.475251">
        <ele>1384.0</ele>
        <time>2013-03-19T08:08:55Z</time>
      </trkpt>
      <trkpt lat="42.964049" lon="0.475375">
        <ele>1384.9</ele>
        <time>2013-03-19T08:09:04Z</time>
      </trkpt>
      <trkpt lat="42.963991" lon="0.475481">
        <ele>1386.4</ele>
        <time>2013-03-19T08:09:13Z</time>
      </trkpt>
      <trkpt lat="42.963959" lon="0.475571">
        <ele>1387.3</ele>
        <time>2013-03-19T08:09:23Z</time>
      </trkpt>
      <trkpt lat="42.963953" lon="0.475656">
        <ele>1387.8</ele>
        <time>2013-03-19T08:10:34Z</time>
      </trkpt>
      <trkpt lat="42.963887" lon="0.475796">
        <ele>1387.8</ele>
        <time>2013-03-19T08:11:01Z</time>
      </trkpt>
      <trkpt lat="42.963847" lon="0.475899">
        <ele>1388.3</ele>
        <time>2013-03-19T08:11:10Z</time>
      </trkpt>
      <trkpt lat="42.963821" lon="0.476029">
        <ele>1388.8</ele>
        <time>2013-03-19T08:11:20Z</time>
      </trkpt>
      <trkpt lat="42.963831" lon="0.476205">
        <ele>1390.2</ele>
        <time>2013-03-19T08:11:34Z</time>
      </trkpt>
      <trkpt lat="42.963835" lon="0.476413">
        <ele>1391.2</ele>
        <time>2013-03-19T08:11:46Z</time>
      </trkpt>
      <trkpt lat="42.963818" lon="0.476566">
        <ele>1392.1</ele>
        <time>2013-03-19T08:11:57Z</time>
      </trkpt>
      <trkpt lat="42.963800" lon="0.476718">
        <ele>1393.1</ele>
        <time>2013-03-19T08:12:09Z</time>
      </trkpt>
      <trkpt lat="42.963779" lon="0.476885">
        <ele>1394.1</ele>
        <time>2013-03-19T08:12:20Z</time>
      </trkpt>
      <trkpt lat="42.963744" lon="0.477039">
        <ele>1394.1</ele>
        <time>2013-03-19T08:12:30Z</time>
      </trkpt>
      <trkpt lat="42.963694" lon="0.477182">
        <ele>1394.1</ele>
        <time>2013-03-19T08:12:40Z</time>
      </trkpt>
      <trkpt lat="42.963613" lon="0.477305">
        <ele>1395.0</ele>
        <time>2013-03-19T08:12:52Z</time>
      </trkpt>
      <trkpt lat="42.963517" lon="0.477388">
        <ele>1395.5</ele>
        <time>2013-03-19T08:13:02Z</time>
      </trkpt>
      <trkpt lat="42.963438" lon="0.477464">
        <ele>1396.0</ele>
        <time>2013-03-19T08:13:12Z</time>
      </trkpt>
      <trkpt lat="42.963348" lon="0.477548">
        <ele>1396.9</ele>
        <time>2013-03-19T08:13:23Z</time>
      </trkpt>
      <trkpt lat="42.963265" lon="0.477638">
        <ele>1397.4</ele>
        <time>2013-03-19T08:13:42Z</time>
        <name>Ruis. de Hourcadere</name>
      </trkpt>
      <trkpt lat="42.963274" lon="0.477769">
        <ele>1397.4</ele>
        <time>2013-03-19T08:14:40Z</time>
      </trkpt>
      <trkpt lat="42.963295" lon="0.477841">
        <ele>1396.9</ele>
        <time>2013-03-19T08:15:01Z</time>
      </trkpt>
      <trkpt lat="42.963390" lon="0.477909">
        <ele>1396.9</ele>
        <time>2013-03-19T08:15:12Z</time>
      </trkpt>
      <trkpt lat="42.963502" lon="0.477967">
        <ele>1396.9</ele>
        <time>2013-03-19T08:15:26Z</time>
      </trkpt>
      <trkpt lat="42.963549" lon="0.478061">
        <ele>1390.5</ele>
        <time>2013-03-19T08:15:52Z</time>
      </trkpt>
      <trkpt lat="42.963521" lon="0.478124">
        <ele>1392.6</ele>
        <time>2013-03-19T08:16:12Z</time>
      </trkpt>
      <trkpt lat="42.963492" lon="0.478182">
        <ele>1405.6</ele>
        <time>2013-03-19T08:16:35Z</time>
      </trkpt>
      <trkpt lat="42.963435" lon="0.478386">
        <ele>1411.8</ele>
        <time>2013-03-19T08:17:08Z</time>
      </trkpt>
      <trkpt lat="42.963415" lon="0.478607">
        <ele>1419.5</ele>
        <time>2013-03-19T08:17:44Z</time>
      </trkpt>
      <trkpt lat="42.963539" lon="0.478913">
        <ele>1415.2</ele>
        <time>2013-03-19T08:18:21Z</time>
      </trkpt>
      <trkpt lat="42.963656" lon="0.479219">
        <ele>1424.6</ele>
        <time>2013-03-19T08:18:41Z</time>
      </trkpt>
      <trkpt lat="42.963727" lon="0.479524">
        <ele>1435.1</ele>
        <time>2013-03-19T08:19:02Z</time>
      </trkpt>
      <trkpt lat="42.963845" lon="0.479878">
        <ele>1448.4</ele>
        <time>2013-03-19T08:19:24Z</time>
      </trkpt>
      <trkpt lat="42.963951" lon="0.480184">
        <ele>1460.4</ele>
        <time>2013-03-19T08:19:51Z</time>
      </trkpt>
      <trkpt lat="42.964092" lon="0.480489">
        <ele>1471.2</ele>
        <time>2013-03-19T08:20:18Z</time>
      </trkpt>
      <trkpt lat="42.964233" lon="0.480843">
        <ele>1483.4</ele>
        <time>2013-03-19T08:20:39Z</time>
      </trkpt>
      <trkpt lat="42.964421" lon="0.481261">
        <ele>1494.9</ele>
        <time>2013-03-19T08:20:57Z</time>
      </trkpt>
      <trkpt lat="42.964586" lon="0.481631">
        <ele>1505.6</ele>
        <time>2013-03-19T08:21:21Z</time>
      </trkpt>
      <trkpt lat="42.964880" lon="0.482129">
        <ele>1520.2</ele>
        <time>2013-03-19T08:22:39Z</time>
      </trkpt>
      <trkpt lat="42.965021" lon="0.482403">
        <ele>1528.0</ele>
        <time>2013-03-19T08:23:00Z</time>
      </trkpt>
      <trkpt lat="42.965151" lon="0.482692">
        <ele>1533.7</ele>
        <time>2013-03-19T08:23:24Z</time>
      </trkpt>
      <trkpt lat="42.965266" lon="0.483043">
        <ele>1536.8</ele>
        <time>2013-03-19T08:35:16Z</time>
      </trkpt>
      <trkpt lat="42.965379" lon="0.483351">
        <ele>1537.8</ele>
        <time>2013-03-19T08:35:27Z</time>
      </trkpt>
      <trkpt lat="42.965444" lon="0.483621">
        <ele>1537.8</ele>
        <time>2013-03-19T08:35:38Z</time>
      </trkpt>
      <trkpt lat="42.965501" lon="0.483865">
        <ele>1537.2</ele>
        <time>2013-03-19T08:35:49Z</time>
      </trkpt>
      <trkpt lat="42.965548" lon="0.484186">
        <ele>1535.9</ele>
        <time>2013-03-19T08:36:03Z</time>
      </trkpt>
      <trkpt lat="42.965567" lon="0.484469">
        <ele>1530.8</ele>
        <time>2013-03-19T08:36:45Z</time>
      </trkpt>
      <trkpt lat="42.965599" lon="0.484779">
        <ele>1524.5</ele>
        <time>2013-03-19T08:41:41Z</time>
      </trkpt>
      <trkpt lat="42.965594" lon="0.485033">
        <ele>1558.4</ele>
        <time>2013-03-19T08:42:02Z</time>
      </trkpt>
      <trkpt lat="42.965544" lon="0.485147">
        <ele>1558.9</ele>
        <time>2013-03-19T08:42:12Z</time>
      </trkpt>
      <trkpt lat="42.965508" lon="0.485266">
        <ele>1558.9</ele>
        <time>2013-03-19T08:42:22Z</time>
      </trkpt>
      <trkpt lat="42.965467" lon="0.485377">
        <ele>1557.9</ele>
        <time>2013-03-19T08:42:32Z</time>
      </trkpt>
      <trkpt lat="42.965431" lon="0.485472">
        <ele>1557.5</ele>
        <time>2013-03-19T08:43:11Z</time>
      </trkpt>
      <trkpt lat="42.965383" lon="0.485596">
        <ele>1557.0</ele>
        <time>2013-03-19T08:43:21Z</time>
      </trkpt>
      <trkpt lat="42.965341" lon="0.485711">
        <ele>1557.0</ele>
        <time>2013-03-19T08:43:30Z</time>
      </trkpt>
      <trkpt lat="42.965308" lon="0.485820">
        <ele>1555.6</ele>
        <time>2013-03-19T08:43:40Z</time>
      </trkpt>
      <trkpt lat="42.965286" lon="0.485955">
        <ele>1554.6</ele>
        <time>2013-03-19T08:43:50Z</time>
      </trkpt>
      <trkpt lat="42.965263" lon="0.486070">
        <ele>1553.6</ele>
        <time>2013-03-19T08:44:00Z</time>
      </trkpt>
      <trkpt lat="42.965228" lon="0.486194">
        <ele>1552.7</ele>
        <time>2013-03-19T08:44:10Z</time>
      </trkpt>
      <trkpt lat="42.965206" lon="0.486304">
        <ele>1551.7</ele>
        <time>2013-03-19T08:44:21Z</time>
      </trkpt>
      <trkpt lat="42.965175" lon="0.486418">
        <ele>1550.7</ele>
        <time>2013-03-19T08:44:31Z</time>
      </trkpt>
      <trkpt lat="42.965161" lon="0.486543">
        <ele>1549.8</ele>
        <time>2013-03-19T08:44:41Z</time>
      </trkpt>
      <trkpt lat="42.965145" lon="0.486665">
        <ele>1548.3</ele>
        <time>2013-03-19T08:44:51Z</time>
      </trkpt>
      <trkpt lat="42.965121" lon="0.486800">
        <ele>1547.9</ele>
        <time>2013-03-19T08:45:01Z</time>
      </trkpt>
      <trkpt lat="42.965116" lon="0.486936">
        <ele>1546.4</ele>
        <time>2013-03-19T08:45:12Z</time>
      </trkpt>
      <trkpt lat="42.965111" lon="0.487067">
        <ele>1545.5</ele>
        <time>2013-03-19T08:45:22Z</time>
      </trkpt>
      <trkpt lat="42.965118" lon="0.487205">
        <ele>1545.0</ele>
        <time>2013-03-19T08:45:32Z</time>
      </trkpt>
      <trkpt lat="42.965101" lon="0.487341">
        <ele>1544.5</ele>
        <time>2013-03-19T08:45:42Z</time>
      </trkpt>
      <trkpt lat="42.965091" lon="0.487477">
        <ele>1544.0</ele>
        <time>2013-03-19T08:45:52Z</time>
      </trkpt>
      <trkpt lat="42.965077" lon="0.487605">
        <ele>1544.0</ele>
        <time>2013-03-19T08:46:01Z</time>
      </trkpt>
      <trkpt lat="42.965076" lon="0.487716">
        <ele>1544.5</ele>
        <time>2013-03-19T08:46:11Z</time>
      </trkpt>
      <trkpt lat="42.965065" lon="0.487857">
        <ele>1544.0</ele>
        <time>2013-03-19T08:46:21Z</time>
      </trkpt>
      <trkpt lat="42.965061" lon="0.487998">
        <ele>1544.0</ele>
        <time>2013-03-19T08:46:31Z</time>
      </trkpt>
      <trkpt lat="42.965058" lon="0.488115">
        <ele>1544.5</ele>
        <time>2013-03-19T08:46:40Z</time>
      </trkpt>
      <trkpt lat="42.965066" lon="0.488249">
        <ele>1544.5</ele>
        <time>2013-03-19T08:46:50Z</time>
      </trkpt>
      <trkpt lat="42.965086" lon="0.488389">
        <ele>1544.5</ele>
        <time>2013-03-19T08:47:00Z</time>
      </trkpt>
      <trkpt lat="42.965095" lon="0.488519">
        <ele>1545.5</ele>
        <time>2013-03-19T08:47:10Z</time>
      </trkpt>
      <trkpt lat="42.965103" lon="0.488652">
        <ele>1545.5</ele>
        <time>2013-03-19T08:47:21Z</time>
      </trkpt>
      <trkpt lat="42.965128" lon="0.488784">
        <ele>1546.4</ele>
        <time>2013-03-19T08:47:31Z</time>
      </trkpt>
      <trkpt lat="42.965160" lon="0.488918">
        <ele>1546.4</ele>
        <time>2013-03-19T08:47:41Z</time>
      </trkpt>
      <trkpt lat="42.965194" lon="0.489049">
        <ele>1547.4</ele>
        <time>2013-03-19T08:47:52Z</time>
      </trkpt>
      <trkpt lat="42.965197" lon="0.489183">
        <ele>1548.8</ele>
        <time>2013-03-19T08:48:03Z</time>
      </trkpt>
      <trkpt lat="42.965208" lon="0.489300">
        <ele>1549.8</ele>
        <time>2013-03-19T08:48:13Z</time>
      </trkpt>
      <trkpt lat="42.965221" lon="0.489421">
        <ele>1550.7</ele>
        <time>2013-03-19T08:48:24Z</time>
      </trkpt>
      <trkpt lat="42.965269" lon="0.489525">
        <ele>1552.7</ele>
        <time>2013-03-19T08:48:36Z</time>
      </trkpt>
      <trkpt lat="42.965319" lon="0.489623">
        <ele>1554.1</ele>
        <time>2013-03-19T08:48:47Z</time>
      </trkpt>
      <trkpt lat="42.965366" lon="0.489720">
        <ele>1556.0</ele>
        <time>2013-03-19T08:49:00Z</time>
      </trkpt>
      <trkpt lat="42.965407" lon="0.489846">
        <ele>1557.9</ele>
        <time>2013-03-19T08:49:13Z</time>
      </trkpt>
      <trkpt lat="42.965418" lon="0.489973">
        <ele>1560.4</ele>
        <time>2013-03-19T08:49:27Z</time>
      </trkpt>
      <trkpt lat="42.965422" lon="0.490098">
        <ele>1562.8</ele>
        <time>2013-03-19T08:49:42Z</time>
      </trkpt>
      <trkpt lat="42.965429" lon="0.490225">
        <ele>1564.7</ele>
        <time>2013-03-19T08:49:56Z</time>
      </trkpt>
      <trkpt lat="42.965454" lon="0.490344">
        <ele>1565.6</ele>
        <time>2013-03-19T08:50:09Z</time>
      </trkpt>
      <trkpt lat="42.965462" lon="0.490466">
        <ele>1567.6</ele>
        <time>2013-03-19T08:53:37Z</time>
      </trkpt>
      <trkpt lat="42.965469" lon="0.490583">
        <ele>1570.0</ele>
        <time>2013-03-19T08:53:52Z</time>
      </trkpt>
      <trkpt lat="42.965502" lon="0.490711">
        <ele>1572.4</ele>
        <time>2013-03-19T08:54:09Z</time>
      </trkpt>
      <trkpt lat="42.965514" lon="0.490806">
        <ele>1575.3</ele>
        <time>2013-03-19T08:54:25Z</time>
      </trkpt>
      <trkpt lat="42.965569" lon="0.490906">
        <ele>1577.7</ele>
        <time>2013-03-19T08:54:40Z</time>
      </trkpt>
      <trkpt lat="42.965610" lon="0.490996">
        <ele>1581.0</ele>
        <time>2013-03-19T08:55:03Z</time>
      </trkpt>
      <trkpt lat="42.965683" lon="0.491084">
        <ele>1584.4</ele>
        <time>2013-03-19T08:55:18Z</time>
      </trkpt>
      <trkpt lat="42.965742" lon="0.491149">
        <ele>1587.3</ele>
        <time>2013-03-19T08:55:33Z</time>
      </trkpt>
      <trkpt lat="42.965802" lon="0.491219">
        <ele>1591.1</ele>
        <time>2013-03-19T08:55:49Z</time>
      </trkpt>
      <trkpt lat="42.965853" lon="0.491318">
        <ele>1595.0</ele>
        <time>2013-03-19T08:56:06Z</time>
      </trkpt>
      <trkpt lat="42.965915" lon="0.491416">
        <ele>1599.3</ele>
        <time>2013-03-19T08:56:22Z</time>
      </trkpt>
      <trkpt lat="42.965983" lon="0.491500">
        <ele>1603.6</ele>
        <time>2013-03-19T08:56:40Z</time>
      </trkpt>
      <trkpt lat="42.966070" lon="0.491544">
        <ele>1607.0</ele>
        <time>2013-03-19T08:56:56Z</time>
      </trkpt>
      <trkpt lat="42.966141" lon="0.491642">
        <ele>1610.8</ele>
        <time>2013-03-19T08:57:14Z</time>
      </trkpt>
      <trkpt lat="42.966196" lon="0.491725">
        <ele>1614.7</ele>
        <time>2013-03-19T08:57:28Z</time>
      </trkpt>
      <trkpt lat="42.966243" lon="0.491820">
        <ele>1619.0</ele>
        <time>2013-03-19T08:57:46Z</time>
      </trkpt>
      <trkpt lat="42.966295" lon="0.491934">
        <ele>1622.4</ele>
        <time>2013-03-19T08:58:02Z</time>
      </trkpt>
      <trkpt lat="42.966361" lon="0.492011">
        <ele>1626.2</ele>
        <time>2013-03-19T08:58:19Z</time>
      </trkpt>
      <trkpt lat="42.966455" lon="0.492041">
        <ele>1630.5</ele>
        <time>2013-03-19T08:58:35Z</time>
      </trkpt>
      <trkpt lat="42.966532" lon="0.492117">
        <ele>1632.9</ele>
        <time>2013-03-19T08:58:50Z</time>
      </trkpt>
      <trkpt lat="42.966579" lon="0.492144">
        <ele>1633.9</ele>
        <time>2013-03-19T08:59:09Z</time>
        <name>Pic de Douly</name>
      </trkpt>
      <trkpt lat="42.966593" lon="0.492163">
        <ele>1633.4</ele>
        <time>2013-03-19T08:59:33Z</time>
      </trkpt>
      <trkpt lat="42.966587" lon="0.492156">
        <ele>1634.4</ele>
        <time>2013-03-19T09:04:05Z</time>
      </trkpt>
      <trkpt lat="42.966594" lon="0.492157">
        <ele>1634.4</ele>
        <time>2013-03-19T09:07:00Z</time>
      </trkpt>
      <trkpt lat="42.966508" lon="0.492083">
        <ele>1633.4</ele>
        <time>2013-03-19T09:07:47Z</time>
      </trkpt>
      <trkpt lat="42.966452" lon="0.491967">
        <ele>1630.1</ele>
        <time>2013-03-19T09:08:01Z</time>
      </trkpt>
      <trkpt lat="42.966358" lon="0.491924">
        <ele>1626.7</ele>
        <time>2013-03-19T09:08:14Z</time>
      </trkpt>
      <trkpt lat="42.966283" lon="0.491855">
        <ele>1621.9</ele>
        <time>2013-03-19T09:08:26Z</time>
      </trkpt>
      <trkpt lat="42.966215" lon="0.491750">
        <ele>1618.0</ele>
        <time>2013-03-19T09:08:39Z</time>
      </trkpt>
      <trkpt lat="42.966150" lon="0.491648">
        <ele>1612.8</ele>
        <time>2013-03-19T09:08:52Z</time>
      </trkpt>
      <trkpt lat="42.966077" lon="0.491572">
        <ele>1609.4</ele>
        <time>2013-03-19T09:09:04Z</time>
      </trkpt>
      <trkpt lat="42.966003" lon="0.491504">
        <ele>1605.1</ele>
        <time>2013-03-19T09:09:17Z</time>
      </trkpt>
      <trkpt lat="42.965936" lon="0.491430">
        <ele>1600.7</ele>
        <time>2013-03-19T09:09:30Z</time>
      </trkpt>
      <trkpt lat="42.965875" lon="0.491354">
        <ele>1596.9</ele>
        <time>2013-03-19T09:09:42Z</time>
      </trkpt>
      <trkpt lat="42.965836" lon="0.491270">
        <ele>1592.6</ele>
        <time>2013-03-19T09:09:54Z</time>
      </trkpt>
      <trkpt lat="42.965779" lon="0.491179">
        <ele>1588.7</ele>
        <time>2013-03-19T09:10:07Z</time>
      </trkpt>
      <trkpt lat="42.965718" lon="0.491093">
        <ele>1585.3</ele>
        <time>2013-03-19T09:10:19Z</time>
      </trkpt>
      <trkpt lat="42.965638" lon="0.490997">
        <ele>1582.0</ele>
        <time>2013-03-19T09:10:31Z</time>
      </trkpt>
      <trkpt lat="42.965580" lon="0.490906">
        <ele>1578.1</ele>
        <time>2013-03-19T09:10:43Z</time>
      </trkpt>
      <trkpt lat="42.965507" lon="0.490823">
        <ele>1574.8</ele>
        <time>2013-03-19T09:10:55Z</time>
      </trkpt>
      <trkpt lat="42.965447" lon="0.490704">
        <ele>1571.4</ele>
        <time>2013-03-19T09:11:06Z</time>
      </trkpt>
      <trkpt lat="42.965403" lon="0.490591">
        <ele>1568.1</ele>
        <time>2013-03-19T09:11:21Z</time>
      </trkpt>
      <trkpt lat="42.965388" lon="0.490485">
        <ele>1566.6</ele>
        <time>2013-03-19T09:11:45Z</time>
      </trkpt>
      <trkpt lat="42.965352" lon="0.490360">
        <ele>1564.2</ele>
        <time>2013-03-19T09:11:55Z</time>
      </trkpt>
      <trkpt lat="42.965310" lon="0.490243">
        <ele>1562.8</ele>
        <time>2013-03-19T09:12:05Z</time>
      </trkpt>
      <trkpt lat="42.965263" lon="0.490132">
        <ele>1559.9</ele>
        <time>2013-03-19T09:12:15Z</time>
      </trkpt>
      <trkpt lat="42.965229" lon="0.490024">
        <ele>1557.9</ele>
        <time>2013-03-19T09:12:25Z</time>
      </trkpt>
      <trkpt lat="42.965185" lon="0.489918">
        <ele>1557.0</ele>
        <time>2013-03-19T09:12:34Z</time>
      </trkpt>
      <trkpt lat="42.965140" lon="0.489804">
        <ele>1555.1</ele>
        <time>2013-03-19T09:12:43Z</time>
      </trkpt>
      <trkpt lat="42.965080" lon="0.489718">
        <ele>1553.6</ele>
        <time>2013-03-19T09:12:52Z</time>
      </trkpt>
      <trkpt lat="42.965018" lon="0.489617">
        <ele>1551.7</ele>
        <time>2013-03-19T09:13:01Z</time>
      </trkpt>
      <trkpt lat="42.964960" lon="0.489507">
        <ele>1550.7</ele>
        <time>2013-03-19T09:13:10Z</time>
      </trkpt>
      <trkpt lat="42.964905" lon="0.489393">
        <ele>1549.8</ele>
        <time>2013-03-19T09:13:20Z</time>
      </trkpt>
      <trkpt lat="42.964862" lon="0.489270">
        <ele>1549.3</ele>
        <time>2013-03-19T09:13:29Z</time>
      </trkpt>
      <trkpt lat="42.964813" lon="0.489158">
        <ele>1548.8</ele>
        <time>2013-03-19T09:13:38Z</time>
      </trkpt>
      <trkpt lat="42.964771" lon="0.489047">
        <ele>1548.3</ele>
        <time>2013-03-19T09:13:47Z</time>
      </trkpt>
      <trkpt lat="42.964717" lon="0.488930">
        <ele>1548.8</ele>
        <time>2013-03-19T09:13:56Z</time>
      </trkpt>
      <trkpt lat="42.964677" lon="0.488812">
        <ele>1549.8</ele>
        <time>2013-03-19T09:14:05Z</time>
      </trkpt>
      <trkpt lat="42.964631" lon="0.488681">
        <ele>1549.8</ele>
        <time>2013-03-19T09:14:15Z</time>
      </trkpt>
      <trkpt lat="42.964592" lon="0.488566">
        <ele>1550.3</ele>
        <time>2013-03-19T09:14:24Z</time>
      </trkpt>
      <trkpt lat="42.964548" lon="0.488462">
        <ele>1550.7</ele>
        <time>2013-03-19T09:14:33Z</time>
      </trkpt>
      <trkpt lat="42.964503" lon="0.488350">
        <ele>1551.7</ele>
        <time>2013-03-19T09:14:43Z</time>
      </trkpt>
      <trkpt lat="42.964466" lon="0.488233">
        <ele>1552.7</ele>
        <time>2013-03-19T09:14:53Z</time>
      </trkpt>
      <trkpt lat="42.964432" lon="0.488117">
        <ele>1553.6</ele>
        <time>2013-03-19T09:15:03Z</time>
      </trkpt>
      <trkpt lat="42.964403" lon="0.488004">
        <ele>1555.1</ele>
        <time>2013-03-19T09:15:13Z</time>
      </trkpt>
      <trkpt lat="42.964358" lon="0.487893">
        <ele>1556.0</ele>
        <time>2013-03-19T09:15:23Z</time>
      </trkpt>
      <trkpt lat="42.964299" lon="0.487776">
        <ele>1557.9</ele>
        <time>2013-03-19T09:15:34Z</time>
      </trkpt>
      <trkpt lat="42.964259" lon="0.487662">
        <ele>1559.9</ele>
        <time>2013-03-19T09:15:45Z</time>
      </trkpt>
      <trkpt lat="42.964201" lon="0.487544">
        <ele>1561.8</ele>
        <time>2013-03-19T09:15:57Z</time>
      </trkpt>
      <trkpt lat="42.964151" lon="0.487434">
        <ele>1565.2</ele>
        <time>2013-03-19T09:16:10Z</time>
      </trkpt>
      <trkpt lat="42.964121" lon="0.487321">
        <ele>1567.6</ele>
        <time>2013-03-19T09:16:24Z</time>
      </trkpt>
      <trkpt lat="42.964069" lon="0.487216">
        <ele>1570.4</ele>
        <time>2013-03-19T09:16:38Z</time>
      </trkpt>
      <trkpt lat="42.964009" lon="0.487124">
        <ele>1573.3</ele>
        <time>2013-03-19T09:16:53Z</time>
      </trkpt>
      <trkpt lat="42.963956" lon="0.487042">
        <ele>1576.2</ele>
        <time>2013-03-19T09:17:08Z</time>
      </trkpt>
      <trkpt lat="42.963907" lon="0.486959">
        <ele>1578.6</ele>
        <time>2013-03-19T09:17:22Z</time>
      </trkpt>
      <trkpt lat="42.963838" lon="0.486860">
        <ele>1581.5</ele>
        <time>2013-03-19T09:17:35Z</time>
      </trkpt>
      <trkpt lat="42.963767" lon="0.486784">
        <ele>1583.4</ele>
        <time>2013-03-19T09:17:48Z</time>
      </trkpt>
      <trkpt lat="42.963697" lon="0.486719">
        <ele>1585.8</ele>
        <time>2013-03-19T09:18:00Z</time>
      </trkpt>
      <trkpt lat="42.963654" lon="0.486612">
        <ele>1588.2</ele>
        <time>2013-03-19T09:18:13Z</time>
      </trkpt>
      <trkpt lat="42.963597" lon="0.486510">
        <ele>1590.2</ele>
        <time>2013-03-19T09:18:25Z</time>
      </trkpt>
      <trkpt lat="42.963543" lon="0.486419">
        <ele>1592.1</ele>
        <time>2013-03-19T09:18:37Z</time>
      </trkpt>
      <trkpt lat="42.963497" lon="0.486323">
        <ele>1594.0</ele>
        <time>2013-03-19T09:18:48Z</time>
      </trkpt>
      <trkpt lat="42.963433" lon="0.486240">
        <ele>1595.9</ele>
        <time>2013-03-19T09:18:59Z</time>
      </trkpt>
      <trkpt lat="42.963373" lon="0.486149">
        <ele>1597.4</ele>
        <time>2013-03-19T09:19:10Z</time>
      </trkpt>
      <trkpt lat="42.963312" lon="0.486056">
        <ele>1599.3</ele>
        <time>2013-03-19T09:19:21Z</time>
      </trkpt>
      <trkpt lat="42.963252" lon="0.485946">
        <ele>1601.7</ele>
        <time>2013-03-19T09:19:33Z</time>
      </trkpt>
      <trkpt lat="42.963195" lon="0.485853">
        <ele>1603.1</ele>
        <time>2013-03-19T09:19:44Z</time>
      </trkpt>
      <trkpt lat="42.963128" lon="0.485762">
        <ele>1604.6</ele>
        <time>2013-03-19T09:19:56Z</time>
      </trkpt>
      <trkpt lat="42.963081" lon="0.485653">
        <ele>1607.0</ele>
        <time>2013-03-19T09:20:08Z</time>
      </trkpt>
      <trkpt lat="42.963050" lon="0.485578">
        <ele>1607.5</ele>
        <time>2013-03-19T09:20:43Z</time>
        <name>Pic de Belloc</name>
      </trkpt>
      <trkpt lat="42.962961" lon="0.485547">
        <ele>1608.4</ele>
        <time>2013-03-19T09:20:56Z</time>
      </trkpt>
      <trkpt lat="42.962874" lon="0.485522">
        <ele>1606.5</ele>
        <time>2013-03-19T09:25:58Z</time>
      </trkpt>
      <trkpt lat="42.962791" lon="0.485470">
        <ele>1604.1</ele>
        <time>2013-03-19T09:26:09Z</time>
      </trkpt>
      <trkpt lat="42.962706" lon="0.485449">
        <ele>1601.7</ele>
        <time>2013-03-19T09:26:20Z</time>
      </trkpt>
      <trkpt lat="42.962615" lon="0.485408">
        <ele>1598.3</ele>
        <time>2013-03-19T09:26:30Z</time>
      </trkpt>
      <trkpt lat="42.962544" lon="0.485338">
        <ele>1596.4</ele>
        <time>2013-03-19T09:26:39Z</time>
      </trkpt>
      <trkpt lat="42.962468" lon="0.485260">
        <ele>1594.0</ele>
        <time>2013-03-19T09:26:48Z</time>
      </trkpt>
      <trkpt lat="42.962391" lon="0.485171">
        <ele>1592.6</ele>
        <time>2013-03-19T09:26:57Z</time>
      </trkpt>
      <trkpt lat="42.962308" lon="0.485093">
        <ele>1590.6</ele>
        <time>2013-03-19T09:27:05Z</time>
      </trkpt>
      <trkpt lat="42.962234" lon="0.485010">
        <ele>1589.2</ele>
        <time>2013-03-19T09:27:14Z</time>
      </trkpt>
      <trkpt lat="42.962160" lon="0.484932">
        <ele>1588.2</ele>
        <time>2013-03-19T09:27:22Z</time>
      </trkpt>
      <trkpt lat="42.962085" lon="0.484845">
        <ele>1586.3</ele>
        <time>2013-03-19T09:27:30Z</time>
      </trkpt>
      <trkpt lat="42.962008" lon="0.484765">
        <ele>1585.8</ele>
        <time>2013-03-19T09:27:38Z</time>
      </trkpt>
      <trkpt lat="42.961933" lon="0.484692">
        <ele>1584.9</ele>
        <time>2013-03-19T09:27:46Z</time>
      </trkpt>
      <trkpt lat="42.961857" lon="0.484614">
        <ele>1583.9</ele>
        <time>2013-03-19T09:27:54Z</time>
      </trkpt>
      <trkpt lat="42.961788" lon="0.484525">
        <ele>1583.9</ele>
        <time>2013-03-19T09:28:02Z</time>
      </trkpt>
      <trkpt lat="42.961720" lon="0.484428">
        <ele>1583.4</ele>
        <time>2013-03-19T09:28:10Z</time>
      </trkpt>
      <trkpt lat="42.961654" lon="0.484332">
        <ele>1584.4</ele>
        <time>2013-03-19T09:28:19Z</time>
      </trkpt>
      <trkpt lat="42.961591" lon="0.484227">
        <ele>1583.4</ele>
        <time>2013-03-19T09:28:28Z</time>
      </trkpt>
      <trkpt lat="42.961538" lon="0.484115">
        <ele>1583.4</ele>
        <time>2013-03-19T09:28:36Z</time>
      </trkpt>
      <trkpt lat="42.961486" lon="0.484005">
        <ele>1583.9</ele>
        <time>2013-03-19T09:28:45Z</time>
      </trkpt>
      <trkpt lat="42.961420" lon="0.483900">
        <ele>1584.4</ele>
        <time>2013-03-19T09:28:54Z</time>
      </trkpt>
      <trkpt lat="42.961362" lon="0.483799">
        <ele>1584.4</ele>
        <time>2013-03-19T09:29:03Z</time>
      </trkpt>
      <trkpt lat="42.961312" lon="0.483677">
        <ele>1585.3</ele>
        <time>2013-03-19T09:29:12Z</time>
      </trkpt>
      <trkpt lat="42.961270" lon="0.483568">
        <ele>1584.9</ele>
        <time>2013-03-19T09:29:21Z</time>
      </trkpt>
      <trkpt lat="42.961212" lon="0.483469">
        <ele>1584.4</ele>
        <time>2013-03-19T09:29:29Z</time>
      </trkpt>
      <trkpt lat="42.961141" lon="0.483374">
        <ele>1583.4</ele>
        <time>2013-03-19T09:29:38Z</time>
      </trkpt>
      <trkpt lat="42.961086" lon="0.483288">
        <ele>1582.9</ele>
        <time>2013-03-19T09:29:46Z</time>
      </trkpt>
      <trkpt lat="42.961019" lon="0.483184">
        <ele>1582.0</ele>
        <time>2013-03-19T09:29:54Z</time>
      </trkpt>
      <trkpt lat="42.960960" lon="0.483095">
        <ele>1581.0</ele>
        <time>2013-03-19T09:30:02Z</time>
      </trkpt>
      <trkpt lat="42.960892" lon="0.483006">
        <ele>1580.5</ele>
        <time>2013-03-19T09:30:10Z</time>
      </trkpt>
      <trkpt lat="42.960840" lon="0.482899">
        <ele>1580.1</ele>
        <time>2013-03-19T09:30:18Z</time>
      </trkpt>
      <trkpt lat="42.960771" lon="0.482797">
        <ele>1580.5</ele>
        <time>2013-03-19T09:30:27Z</time>
      </trkpt>
      <trkpt lat="42.960708" lon="0.482694">
        <ele>1579.6</ele>
        <time>2013-03-19T09:30:35Z</time>
      </trkpt>
      <trkpt lat="42.960645" lon="0.482591">
        <ele>1577.7</ele>
        <time>2013-03-19T09:30:43Z</time>
      </trkpt>
      <trkpt lat="42.960585" lon="0.482490">
        <ele>1578.6</ele>
        <time>2013-03-19T09:30:51Z</time>
      </trkpt>
      <trkpt lat="42.960529" lon="0.482382">
        <ele>1579.1</ele>
        <time>2013-03-19T09:30:59Z</time>
      </trkpt>
      <trkpt lat="42.960466" lon="0.482280">
        <ele>1579.6</ele>
        <time>2013-03-19T09:31:08Z</time>
      </trkpt>
      <trkpt lat="42.960407" lon="0.482184">
        <ele>1580.5</ele>
        <time>2013-03-19T09:31:17Z</time>
      </trkpt>
      <trkpt lat="42.960345" lon="0.482090">
        <ele>1581.5</ele>
        <time>2013-03-19T09:31:26Z</time>
      </trkpt>
      <trkpt lat="42.960280" lon="0.481982">
        <ele>1582.9</ele>
        <time>2013-03-19T09:31:37Z</time>
      </trkpt>
      <trkpt lat="42.960198" lon="0.481910">
        <ele>1584.9</ele>
        <time>2013-03-19T09:31:48Z</time>
      </trkpt>
      <trkpt lat="42.960126" lon="0.481831">
        <ele>1587.3</ele>
        <time>2013-03-19T09:32:00Z</time>
      </trkpt>
      <trkpt lat="42.960063" lon="0.481748">
        <ele>1588.7</ele>
        <time>2013-03-19T09:32:10Z</time>
      </trkpt>
      <trkpt lat="42.959997" lon="0.481650">
        <ele>1589.7</ele>
        <time>2013-03-19T09:32:20Z</time>
      </trkpt>
      <trkpt lat="42.959937" lon="0.481540">
        <ele>1590.2</ele>
        <time>2013-03-19T09:32:30Z</time>
      </trkpt>
      <trkpt lat="42.959867" lon="0.481447">
        <ele>1589.7</ele>
        <time>2013-03-19T09:32:40Z</time>
      </trkpt>
      <trkpt lat="42.959812" lon="0.481328">
        <ele>1590.6</ele>
        <time>2013-03-19T09:32:51Z</time>
      </trkpt>
      <trkpt lat="42.959779" lon="0.481203">
        <ele>1591.1</ele>
        <time>2013-03-19T09:33:01Z</time>
      </trkpt>
      <trkpt lat="42.959746" lon="0.481071">
        <ele>1592.6</ele>
        <time>2013-03-19T09:33:11Z</time>
      </trkpt>
      <trkpt lat="42.959725" lon="0.480952">
        <ele>1591.6</ele>
        <time>2013-03-19T09:33:20Z</time>
      </trkpt>
      <trkpt lat="42.959696" lon="0.480841">
        <ele>1591.6</ele>
        <time>2013-03-19T09:33:29Z</time>
      </trkpt>
      <trkpt lat="42.959643" lon="0.480743">
        <ele>1590.6</ele>
        <time>2013-03-19T09:33:38Z</time>
      </trkpt>
      <trkpt lat="42.959599" lon="0.480631">
        <ele>1590.2</ele>
        <time>2013-03-19T09:33:47Z</time>
      </trkpt>
      <trkpt lat="42.959543" lon="0.480523">
        <ele>1589.2</ele>
        <time>2013-03-19T09:33:56Z</time>
      </trkpt>
      <trkpt lat="42.959486" lon="0.480417">
        <ele>1588.7</ele>
        <time>2013-03-19T09:34:05Z</time>
      </trkpt>
      <trkpt lat="42.959438" lon="0.480304">
        <ele>1588.7</ele>
        <time>2013-03-19T09:34:14Z</time>
      </trkpt>
      <trkpt lat="42.959401" lon="0.480187">
        <ele>1589.7</ele>
        <time>2013-03-19T09:34:23Z</time>
      </trkpt>
      <trkpt lat="42.959369" lon="0.480073">
        <ele>1591.1</ele>
        <time>2013-03-19T09:34:32Z</time>
      </trkpt>
      <trkpt lat="42.959336" lon="0.479972">
        <ele>1591.1</ele>
        <time>2013-03-19T09:34:41Z</time>
      </trkpt>
      <trkpt lat="42.959284" lon="0.479868">
        <ele>1593.0</ele>
        <time>2013-03-19T09:34:51Z</time>
      </trkpt>
      <trkpt lat="42.959230" lon="0.479757">
        <ele>1595.0</ele>
        <time>2013-03-19T09:35:01Z</time>
      </trkpt>
      <trkpt lat="42.959167" lon="0.479671">
        <ele>1595.4</ele>
        <time>2013-03-19T09:35:10Z</time>
      </trkpt>
      <trkpt lat="42.959114" lon="0.479559">
        <ele>1596.9</ele>
        <time>2013-03-19T09:35:20Z</time>
      </trkpt>
      <trkpt lat="42.959060" lon="0.479447">
        <ele>1598.8</ele>
        <time>2013-03-19T09:35:30Z</time>
      </trkpt>
      <trkpt lat="42.959015" lon="0.479335">
        <ele>1599.8</ele>
        <time>2013-03-19T09:35:40Z</time>
      </trkpt>
      <trkpt lat="42.958961" lon="0.479241">
        <ele>1601.2</ele>
        <time>2013-03-19T09:35:50Z</time>
      </trkpt>
      <trkpt lat="42.958908" lon="0.479141">
        <ele>1603.1</ele>
        <time>2013-03-19T09:36:00Z</time>
      </trkpt>
      <trkpt lat="42.958844" lon="0.479062">
        <ele>1604.6</ele>
        <time>2013-03-19T09:36:11Z</time>
      </trkpt>
      <trkpt lat="42.958770" lon="0.478982">
        <ele>1606.5</ele>
        <time>2013-03-19T09:36:23Z</time>
      </trkpt>
      <trkpt lat="42.958698" lon="0.478914">
        <ele>1608.9</ele>
        <time>2013-03-19T09:36:35Z</time>
      </trkpt>
      <trkpt lat="42.958620" lon="0.478856">
        <ele>1611.8</ele>
        <time>2013-03-19T09:36:49Z</time>
      </trkpt>
      <trkpt lat="42.958550" lon="0.478784">
        <ele>1613.7</ele>
        <time>2013-03-19T09:37:22Z</time>
      </trkpt>
      <trkpt lat="42.958488" lon="0.478715">
        <ele>1617.6</ele>
        <time>2013-03-19T09:37:38Z</time>
      </trkpt>
      <trkpt lat="42.958398" lon="0.478679">
        <ele>1620.4</ele>
        <time>2013-03-19T09:37:53Z</time>
      </trkpt>
      <trkpt lat="42.958312" lon="0.478637">
        <ele>1623.8</ele>
        <time>2013-03-19T09:38:08Z</time>
      </trkpt>
      <trkpt lat="42.958235" lon="0.478628">
        <ele>1627.7</ele>
        <time>2013-03-19T09:38:26Z</time>
      </trkpt>
      <trkpt lat="42.958159" lon="0.478584">
        <ele>1632.5</ele>
        <time>2013-03-19T09:38:44Z</time>
      </trkpt>
      <trkpt lat="42.958076" lon="0.478552">
        <ele>1635.8</ele>
        <time>2013-03-19T09:39:19Z</time>
      </trkpt>
      <trkpt lat="42.957979" lon="0.478529">
        <ele>1640.2</ele>
        <time>2013-03-19T09:39:36Z</time>
      </trkpt>
      <trkpt lat="42.957889" lon="0.478492">
        <ele>1644.9</ele>
        <time>2013-03-19T09:39:51Z</time>
      </trkpt>
      <trkpt lat="42.957829" lon="0.478467">
        <ele>1646.9</ele>
        <time>2013-03-19T09:40:49Z</time>
      </trkpt>
      <trkpt lat="42.957737" lon="0.478416">
        <ele>1650.7</ele>
        <time>2013-03-19T09:41:03Z</time>
      </trkpt>
      <trkpt lat="42.957647" lon="0.478371">
        <ele>1653.6</ele>
        <time>2013-03-19T09:41:17Z</time>
      </trkpt>
      <trkpt lat="42.957561" lon="0.478329">
        <ele>1657.0</ele>
        <time>2013-03-19T09:41:30Z</time>
      </trkpt>
      <trkpt lat="42.957479" lon="0.478296">
        <ele>1658.9</ele>
        <time>2013-03-19T09:41:42Z</time>
      </trkpt>
      <trkpt lat="42.957394" lon="0.478268">
        <ele>1662.3</ele>
        <time>2013-03-19T09:41:56Z</time>
      </trkpt>
      <trkpt lat="42.957308" lon="0.478247">
        <ele>1666.1</ele>
        <time>2013-03-19T09:42:11Z</time>
      </trkpt>
      <trkpt lat="42.957223" lon="0.478225">
        <ele>1669.5</ele>
        <time>2013-03-19T09:42:26Z</time>
      </trkpt>
      <trkpt lat="42.957135" lon="0.478211">
        <ele>1672.8</ele>
        <time>2013-03-19T09:42:40Z</time>
      </trkpt>
      <trkpt lat="42.957049" lon="0.478209">
        <ele>1677.2</ele>
        <time>2013-03-19T09:42:57Z</time>
      </trkpt>
      <trkpt lat="42.956966" lon="0.478207">
        <ele>1681.0</ele>
        <time>2013-03-19T09:43:13Z</time>
      </trkpt>
      <trkpt lat="42.956890" lon="0.478235">
        <ele>1686.3</ele>
        <time>2013-03-19T09:43:33Z</time>
      </trkpt>
      <trkpt lat="42.956800" lon="0.478242">
        <ele>1690.6</ele>
        <time>2013-03-19T09:43:53Z</time>
      </trkpt>
      <trkpt lat="42.956719" lon="0.478241">
        <ele>1694.5</ele>
        <time>2013-03-19T09:44:11Z</time>
      </trkpt>
      <trkpt lat="42.956633" lon="0.478243">
        <ele>1697.3</ele>
        <time>2013-03-19T09:44:27Z</time>
      </trkpt>
      <trkpt lat="42.956540" lon="0.478263">
        <ele>1700.2</ele>
        <time>2013-03-19T09:44:41Z</time>
      </trkpt>
      <trkpt lat="42.956444" lon="0.478301">
        <ele>1702.2</ele>
        <time>2013-03-19T09:44:57Z</time>
      </trkpt>
      <trkpt lat="42.956361" lon="0.478287">
        <ele>1704.6</ele>
        <time>2013-03-19T09:45:10Z</time>
      </trkpt>
      <trkpt lat="42.956282" lon="0.478290">
        <ele>1707.4</ele>
        <time>2013-03-19T09:45:24Z</time>
      </trkpt>
      <trkpt lat="42.956199" lon="0.478289">
        <ele>1710.8</ele>
        <time>2013-03-19T09:45:39Z</time>
      </trkpt>
      <trkpt lat="42.956108" lon="0.478304">
        <ele>1715.6</ele>
        <time>2013-03-19T09:45:55Z</time>
      </trkpt>
      <trkpt lat="42.956021" lon="0.478334">
        <ele>1719.9</ele>
        <time>2013-03-19T09:46:11Z</time>
      </trkpt>
      <trkpt lat="42.955947" lon="0.478309">
        <ele>1724.3</ele>
        <time>2013-03-19T09:46:26Z</time>
      </trkpt>
      <trkpt lat="42.955863" lon="0.478321">
        <ele>1728.6</ele>
        <time>2013-03-19T09:46:43Z</time>
      </trkpt>
      <trkpt lat="42.955782" lon="0.478329">
        <ele>1731.9</ele>
        <time>2013-03-19T09:46:58Z</time>
      </trkpt>
      <trkpt lat="42.955699" lon="0.478323">
        <ele>1735.8</ele>
        <time>2013-03-19T09:47:13Z</time>
      </trkpt>
      <trkpt lat="42.955615" lon="0.478329">
        <ele>1740.1</ele>
        <time>2013-03-19T09:47:32Z</time>
      </trkpt>
      <trkpt lat="42.955531" lon="0.478367">
        <ele>1743.5</ele>
        <time>2013-03-19T09:47:47Z</time>
      </trkpt>
      <trkpt lat="42.955437" lon="0.478383">
        <ele>1747.3</ele>
        <time>2013-03-19T09:48:08Z</time>
      </trkpt>
      <trkpt lat="42.955340" lon="0.478390">
        <ele>1751.7</ele>
        <time>2013-03-19T09:48:24Z</time>
      </trkpt>
      <trkpt lat="42.955251" lon="0.478410">
        <ele>1755.0</ele>
        <time>2013-03-19T09:48:39Z</time>
      </trkpt>
      <trkpt lat="42.955165" lon="0.478426">
        <ele>1758.9</ele>
        <time>2013-03-19T09:48:53Z</time>
      </trkpt>
      <trkpt lat="42.955080" lon="0.478442">
        <ele>1762.2</ele>
        <time>2013-03-19T09:49:07Z</time>
      </trkpt>
      <trkpt lat="42.954991" lon="0.478484">
        <ele>1766.1</ele>
        <time>2013-03-19T09:49:22Z</time>
      </trkpt>
      <trkpt lat="42.954899" lon="0.478497">
        <ele>1769.4</ele>
        <time>2013-03-19T09:49:36Z</time>
      </trkpt>
      <trkpt lat="42.954824" lon="0.478541">
        <ele>1773.3</ele>
        <time>2013-03-19T09:49:50Z</time>
      </trkpt>
      <trkpt lat="42.954743" lon="0.478578">
        <ele>1776.2</ele>
        <time>2013-03-19T09:50:03Z</time>
      </trkpt>
      <trkpt lat="42.954654" lon="0.478578">
        <ele>1779.1</ele>
        <time>2013-03-19T09:50:15Z</time>
      </trkpt>
      <trkpt lat="42.954565" lon="0.478607">
        <ele>1781.9</ele>
        <time>2013-03-19T09:50:29Z</time>
      </trkpt>
      <trkpt lat="42.954474" lon="0.478624">
        <ele>1784.8</ele>
        <time>2013-03-19T09:50:42Z</time>
      </trkpt>
      <trkpt lat="42.954392" lon="0.478656">
        <ele>1788.2</ele>
        <time>2013-03-19T09:50:55Z</time>
      </trkpt>
      <trkpt lat="42.954311" lon="0.478682">
        <ele>1791.1</ele>
        <time>2013-03-19T09:51:09Z</time>
      </trkpt>
      <trkpt lat="42.954220" lon="0.478680">
        <ele>1795.9</ele>
        <time>2013-03-19T09:51:24Z</time>
      </trkpt>
      <trkpt lat="42.954130" lon="0.478712">
        <ele>1799.7</ele>
        <time>2013-03-19T09:51:37Z</time>
      </trkpt>
      <trkpt lat="42.954043" lon="0.478743">
        <ele>1801.7</ele>
        <time>2013-03-19T09:51:49Z</time>
      </trkpt>
      <trkpt lat="42.953946" lon="0.478781">
        <ele>1804.5</ele>
        <time>2013-03-19T09:52:02Z</time>
      </trkpt>
      <trkpt lat="42.953858" lon="0.478791">
        <ele>1806.9</ele>
        <time>2013-03-19T09:52:14Z</time>
      </trkpt>
      <trkpt lat="42.953769" lon="0.478774">
        <ele>1809.3</ele>
        <time>2013-03-19T09:52:25Z</time>
      </trkpt>
      <trkpt lat="42.953678" lon="0.478738">
        <ele>1811.3</ele>
        <time>2013-03-19T09:52:37Z</time>
      </trkpt>
      <trkpt lat="42.953586" lon="0.478751">
        <ele>1813.7</ele>
        <time>2013-03-19T09:52:49Z</time>
      </trkpt>
      <trkpt lat="42.953493" lon="0.478777">
        <ele>1816.1</ele>
        <time>2013-03-19T09:53:00Z</time>
      </trkpt>
      <trkpt lat="42.953412" lon="0.478792">
        <ele>1818.5</ele>
        <time>2013-03-19T09:53:11Z</time>
      </trkpt>
      <trkpt lat="42.953321" lon="0.478797">
        <ele>1821.3</ele>
        <time>2013-03-19T09:53:23Z</time>
      </trkpt>
      <trkpt lat="42.953230" lon="0.478789">
        <ele>1824.2</ele>
        <time>2013-03-19T09:53:36Z</time>
      </trkpt>
      <trkpt lat="42.953142" lon="0.478803">
        <ele>1827.6</ele>
        <time>2013-03-19T09:53:51Z</time>
      </trkpt>
      <trkpt lat="42.953049" lon="0.478820">
        <ele>1831.4</ele>
        <time>2013-03-19T09:54:05Z</time>
      </trkpt>
      <trkpt lat="42.952972" lon="0.478784">
        <ele>1833.4</ele>
        <time>2013-03-19T09:54:17Z</time>
      </trkpt>
      <trkpt lat="42.952880" lon="0.478773">
        <ele>1836.3</ele>
        <time>2013-03-19T09:54:28Z</time>
      </trkpt>
      <trkpt lat="42.952786" lon="0.478735">
        <ele>1839.6</ele>
        <time>2013-03-19T09:54:42Z</time>
      </trkpt>
      <trkpt lat="42.952692" lon="0.478694">
        <ele>1842.5</ele>
        <time>2013-03-19T09:54:54Z</time>
      </trkpt>
      <trkpt lat="42.952597" lon="0.478664">
        <ele>1845.4</ele>
        <time>2013-03-19T09:55:06Z</time>
      </trkpt>
      <trkpt lat="42.952510" lon="0.478626">
        <ele>1847.3</ele>
        <time>2013-03-19T09:55:17Z</time>
      </trkpt>
      <trkpt lat="42.952418" lon="0.478586">
        <ele>1850.2</ele>
        <time>2013-03-19T09:55:30Z</time>
      </trkpt>
      <trkpt lat="42.952328" lon="0.478548">
        <ele>1853.1</ele>
        <time>2013-03-19T09:55:42Z</time>
      </trkpt>
      <trkpt lat="42.952260" lon="0.478496">
        <ele>1808.4</ele>
        <time>2013-03-19T09:55:55Z</time>
      </trkpt>
      <trkpt lat="42.952237" lon="0.478433">
        <ele>1852.1</ele>
        <time>2013-03-19T10:54:45Z</time>
        <name>Pic de Mont Aspet</name>
      </trkpt>
      <trkpt lat="42.952314" lon="0.478527">
        <ele>1851.2</ele>
        <time>2013-03-19T10:56:37Z</time>
      </trkpt>
      <trkpt lat="42.952395" lon="0.478558">
        <ele>1849.2</ele>
        <time>2013-03-19T10:56:51Z</time>
      </trkpt>
      <trkpt lat="42.952481" lon="0.478578">
        <ele>1845.9</ele>
        <time>2013-03-19T10:57:07Z</time>
      </trkpt>
      <trkpt lat="42.952581" lon="0.478594">
        <ele>1843.9</ele>
        <time>2013-03-19T10:57:22Z</time>
      </trkpt>
      <trkpt lat="42.952673" lon="0.478605">
        <ele>1841.5</ele>
        <time>2013-03-19T10:57:35Z</time>
      </trkpt>
      <trkpt lat="42.952760" lon="0.478624">
        <ele>1839.1</ele>
        <time>2013-03-19T10:57:47Z</time>
      </trkpt>
      <trkpt lat="42.952854" lon="0.478639">
        <ele>1835.8</ele>
        <time>2013-03-19T10:58:01Z</time>
      </trkpt>
      <trkpt lat="42.952944" lon="0.478650">
        <ele>1831.9</ele>
        <time>2013-03-19T10:58:14Z</time>
      </trkpt>
      <trkpt lat="42.953034" lon="0.478666">
        <ele>1830.0</ele>
        <time>2013-03-19T10:58:27Z</time>
      </trkpt>
      <trkpt lat="42.953126" lon="0.478671">
        <ele>1826.2</ele>
        <time>2013-03-19T10:58:40Z</time>
      </trkpt>
      <trkpt lat="42.953216" lon="0.478711">
        <ele>1823.3</ele>
        <time>2013-03-19T10:58:52Z</time>
      </trkpt>
      <trkpt lat="42.953302" lon="0.478721">
        <ele>1820.9</ele>
        <time>2013-03-19T10:59:05Z</time>
      </trkpt>
      <trkpt lat="42.953385" lon="0.478759">
        <ele>1818.5</ele>
        <time>2013-03-19T10:59:18Z</time>
      </trkpt>
      <trkpt lat="42.953485" lon="0.478763">
        <ele>1815.1</ele>
        <time>2013-03-19T10:59:29Z</time>
      </trkpt>
      <trkpt lat="42.953579" lon="0.478751">
        <ele>1813.7</ele>
        <time>2013-03-19T10:59:40Z</time>
      </trkpt>
      <trkpt lat="42.953664" lon="0.478758">
        <ele>1810.8</ele>
        <time>2013-03-19T10:59:50Z</time>
      </trkpt>
      <trkpt lat="42.953755" lon="0.478783">
        <ele>1810.3</ele>
        <time>2013-03-19T11:00:00Z</time>
      </trkpt>
      <trkpt lat="42.953849" lon="0.478798">
        <ele>1807.4</ele>
        <time>2013-03-19T11:00:11Z</time>
      </trkpt>
      <trkpt lat="42.953947" lon="0.478794">
        <ele>1802.1</ele>
        <time>2013-03-19T11:00:22Z</time>
      </trkpt>
      <trkpt lat="42.954040" lon="0.478762">
        <ele>1799.2</ele>
        <time>2013-03-19T11:00:32Z</time>
      </trkpt>
      <trkpt lat="42.954135" lon="0.478728">
        <ele>1796.8</ele>
        <time>2013-03-19T11:00:43Z</time>
      </trkpt>
      <trkpt lat="42.954223" lon="0.478688">
        <ele>1793.5</ele>
        <time>2013-03-19T11:00:54Z</time>
      </trkpt>
      <trkpt lat="42.954313" lon="0.478699">
        <ele>1789.2</ele>
        <time>2013-03-19T11:01:06Z</time>
      </trkpt>
      <trkpt lat="42.954406" lon="0.478675">
        <ele>1785.8</ele>
        <time>2013-03-19T11:01:17Z</time>
      </trkpt>
      <trkpt lat="42.954497" lon="0.478646">
        <ele>1781.9</ele>
        <time>2013-03-19T11:01:28Z</time>
      </trkpt>
      <trkpt lat="42.954584" lon="0.478619">
        <ele>1778.6</ele>
        <time>2013-03-19T11:01:39Z</time>
      </trkpt>
      <trkpt lat="42.954678" lon="0.478590">
        <ele>1774.7</ele>
        <time>2013-03-19T11:01:50Z</time>
      </trkpt>
      <trkpt lat="42.954772" lon="0.478585">
        <ele>1771.8</ele>
        <time>2013-03-19T11:02:00Z</time>
      </trkpt>
      <trkpt lat="42.954866" lon="0.478557">
        <ele>1768.5</ele>
        <time>2013-03-19T11:02:10Z</time>
      </trkpt>
      <trkpt lat="42.954958" lon="0.478521">
        <ele>1765.1</ele>
        <time>2013-03-19T11:02:21Z</time>
      </trkpt>
      <trkpt lat="42.955047" lon="0.478508">
        <ele>1761.3</ele>
        <time>2013-03-19T11:02:31Z</time>
      </trkpt>
      <trkpt lat="42.955137" lon="0.478480">
        <ele>1758.9</ele>
        <time>2013-03-19T11:02:49Z</time>
      </trkpt>
      <trkpt lat="42.955233" lon="0.478452">
        <ele>1754.5</ele>
        <time>2013-03-19T11:03:00Z</time>
      </trkpt>
      <trkpt lat="42.955326" lon="0.478424">
        <ele>1750.2</ele>
        <time>2013-03-19T11:03:12Z</time>
      </trkpt>
      <trkpt lat="42.955417" lon="0.478410">
        <ele>1745.9</ele>
        <time>2013-03-19T11:03:24Z</time>
      </trkpt>
      <trkpt lat="42.955511" lon="0.478393">
        <ele>1741.6</ele>
        <time>2013-03-19T11:03:35Z</time>
      </trkpt>
      <trkpt lat="42.955605" lon="0.478405">
        <ele>1737.2</ele>
        <time>2013-03-19T11:03:45Z</time>
      </trkpt>
      <trkpt lat="42.955698" lon="0.478398">
        <ele>1732.9</ele>
        <time>2013-03-19T11:03:55Z</time>
      </trkpt>
      <trkpt lat="42.955789" lon="0.478381">
        <ele>1729.1</ele>
        <time>2013-03-19T11:04:05Z</time>
      </trkpt>
      <trkpt lat="42.955881" lon="0.478372">
        <ele>1724.3</ele>
        <time>2013-03-19T11:04:15Z</time>
      </trkpt>
      <trkpt lat="42.955972" lon="0.478349">
        <ele>1719.5</ele>
        <time>2013-03-19T11:04:49Z</time>
      </trkpt>
      <trkpt lat="42.956059" lon="0.478334">
        <ele>1715.1</ele>
        <time>2013-03-19T11:04:59Z</time>
      </trkpt>
      <trkpt lat="42.956153" lon="0.478328">
        <ele>1710.8</ele>
        <time>2013-03-19T11:05:09Z</time>
      </trkpt>
      <trkpt lat="42.956250" lon="0.478328">
        <ele>1706.5</ele>
        <time>2013-03-19T11:05:19Z</time>
      </trkpt>
      <trkpt lat="42.956349" lon="0.478322">
        <ele>1702.2</ele>
        <time>2013-03-19T11:05:28Z</time>
      </trkpt>
      <trkpt lat="42.956442" lon="0.478325">
        <ele>1699.8</ele>
        <time>2013-03-19T11:05:36Z</time>
      </trkpt>
      <trkpt lat="42.956535" lon="0.478315">
        <ele>1697.8</ele>
        <time>2013-03-19T11:05:44Z</time>
      </trkpt>
      <trkpt lat="42.956631" lon="0.478289">
        <ele>1695.4</ele>
        <time>2013-03-19T11:05:53Z</time>
      </trkpt>
      <trkpt lat="42.956726" lon="0.478286">
        <ele>1693.0</ele>
        <time>2013-03-19T11:06:02Z</time>
      </trkpt>
      <trkpt lat="42.956818" lon="0.478273">
        <ele>1688.2</ele>
        <time>2013-03-19T11:06:13Z</time>
      </trkpt>
      <trkpt lat="42.956915" lon="0.478256">
        <ele>1683.9</ele>
        <time>2013-03-19T11:06:25Z</time>
      </trkpt>
      <trkpt lat="42.957003" lon="0.478216">
        <ele>1678.6</ele>
        <time>2013-03-19T11:06:39Z</time>
      </trkpt>
      <trkpt lat="42.957084" lon="0.478174">
        <ele>1675.2</ele>
        <time>2013-03-19T11:06:50Z</time>
      </trkpt>
      <trkpt lat="42.957164" lon="0.478100">
        <ele>1671.4</ele>
        <time>2013-03-19T11:07:00Z</time>
      </trkpt>
      <trkpt lat="42.957245" lon="0.478070">
        <ele>1667.5</ele>
        <time>2013-03-19T11:07:10Z</time>
      </trkpt>
      <trkpt lat="42.957330" lon="0.478066">
        <ele>1664.7</ele>
        <time>2013-03-19T11:07:20Z</time>
      </trkpt>
      <trkpt lat="42.957420" lon="0.478014">
        <ele>1660.8</ele>
        <time>2013-03-19T11:07:30Z</time>
      </trkpt>
      <trkpt lat="42.957512" lon="0.477959">
        <ele>1657.4</ele>
        <time>2013-03-19T11:07:40Z</time>
      </trkpt>
      <trkpt lat="42.957598" lon="0.477938">
        <ele>1654.6</ele>
        <time>2013-03-19T11:07:49Z</time>
      </trkpt>
      <trkpt lat="42.957689" lon="0.477903">
        <ele>1651.2</ele>
        <time>2013-03-19T11:07:58Z</time>
      </trkpt>
      <trkpt lat="42.957776" lon="0.477855">
        <ele>1649.3</ele>
        <time>2013-03-19T11:08:07Z</time>
      </trkpt>
      <trkpt lat="42.957858" lon="0.477810">
        <ele>1647.8</ele>
        <time>2013-03-19T11:08:22Z</time>
      </trkpt>
      <trkpt lat="42.957924" lon="0.477731">
        <ele>1645.4</ele>
        <time>2013-03-19T11:08:34Z</time>
      </trkpt>
      <trkpt lat="42.958018" lon="0.477689">
        <ele>1644.5</ele>
        <time>2013-03-19T11:08:44Z</time>
      </trkpt>
      <trkpt lat="42.958103" lon="0.477616">
        <ele>1641.6</ele>
        <time>2013-03-19T11:08:53Z</time>
      </trkpt>
      <trkpt lat="42.958193" lon="0.477575">
        <ele>1639.2</ele>
        <time>2013-03-19T11:09:01Z</time>
      </trkpt>
      <trkpt lat="42.958282" lon="0.477535">
        <ele>1637.3</ele>
        <time>2013-03-19T11:09:10Z</time>
      </trkpt>
      <trkpt lat="42.958370" lon="0.477517">
        <ele>1635.3</ele>
        <time>2013-03-19T11:09:18Z</time>
      </trkpt>
      <trkpt lat="42.958458" lon="0.477472">
        <ele>1633.9</ele>
        <time>2013-03-19T11:09:26Z</time>
      </trkpt>
      <trkpt lat="42.958526" lon="0.477379">
        <ele>1633.4</ele>
        <time>2013-03-19T11:09:37Z</time>
      </trkpt>
      <trkpt lat="42.958605" lon="0.477310">
        <ele>1632.9</ele>
        <time>2013-03-19T11:09:46Z</time>
      </trkpt>
      <trkpt lat="42.958686" lon="0.477266">
        <ele>1631.5</ele>
        <time>2013-03-19T11:09:56Z</time>
      </trkpt>
      <trkpt lat="42.958719" lon="0.477243">
        <ele>1631.5</ele>
        <time>2013-03-19T11:10:24Z</time>
      </trkpt>
      <trkpt lat="42.958760" lon="0.477228">
        <ele>1630.5</ele>
        <time>2013-03-19T11:14:44Z</time>
      </trkpt>
      <trkpt lat="42.958814" lon="0.477208">
        <ele>1594.2</ele>
        <time>2013-03-19T11:25:37Z</time>
      </trkpt>
      <trkpt lat="42.958835" lon="0.477133">
        <ele>1643.0</ele>
        <time>2013-03-19T11:26:12Z</time>
        <name>Cab. de la Prade</name>
      </trkpt>
      <trkpt lat="42.958843" lon="0.477075">
        <ele>1641.6</ele>
        <time>2013-03-19T11:27:03Z</time>
      </trkpt>
      <trkpt lat="42.958825" lon="0.476944">
        <ele>1643.0</ele>
        <time>2013-03-19T11:27:16Z</time>
      </trkpt>
      <trkpt lat="42.958807" lon="0.476815">
        <ele>1643.0</ele>
        <time>2013-03-19T11:27:28Z</time>
      </trkpt>
      <trkpt lat="42.958838" lon="0.476705">
        <ele>1643.0</ele>
        <time>2013-03-19T11:27:41Z</time>
      </trkpt>
      <trkpt lat="42.958879" lon="0.476610">
        <ele>1643.5</ele>
        <time>2013-03-19T11:27:54Z</time>
      </trkpt>
      <trkpt lat="42.958914" lon="0.476558">
        <ele>1643.0</ele>
        <time>2013-03-19T11:28:15Z</time>
      </trkpt>
      <trkpt lat="42.958977" lon="0.476451">
        <ele>1638.7</ele>
        <time>2013-03-19T11:28:28Z</time>
      </trkpt>
      <trkpt lat="42.959037" lon="0.476350">
        <ele>1640.6</ele>
        <time>2013-03-19T11:28:41Z</time>
      </trkpt>
      <trkpt lat="42.959073" lon="0.476238">
        <ele>1639.2</ele>
        <time>2013-03-19T11:28:52Z</time>
      </trkpt>
      <trkpt lat="42.959129" lon="0.476139">
        <ele>1637.7</ele>
        <time>2013-03-19T11:29:03Z</time>
      </trkpt>
      <trkpt lat="42.959177" lon="0.476035">
        <ele>1635.8</ele>
        <time>2013-03-19T11:29:13Z</time>
      </trkpt>
      <trkpt lat="42.959215" lon="0.475920">
        <ele>1633.9</ele>
        <time>2013-03-19T11:29:24Z</time>
      </trkpt>
      <trkpt lat="42.959250" lon="0.475798">
        <ele>1632.5</ele>
        <time>2013-03-19T11:29:34Z</time>
      </trkpt>
      <trkpt lat="42.959296" lon="0.475689">
        <ele>1631.0</ele>
        <time>2013-03-19T11:29:44Z</time>
      </trkpt>
      <trkpt lat="42.959364" lon="0.475593">
        <ele>1630.1</ele>
        <time>2013-03-19T11:29:54Z</time>
      </trkpt>
      <trkpt lat="42.959431" lon="0.475492">
        <ele>1628.1</ele>
        <time>2013-03-19T11:30:04Z</time>
      </trkpt>
      <trkpt lat="42.959501" lon="0.475402">
        <ele>1626.7</ele>
        <time>2013-03-19T11:30:13Z</time>
      </trkpt>
      <trkpt lat="42.959573" lon="0.475328">
        <ele>1624.8</ele>
        <time>2013-03-19T11:30:22Z</time>
      </trkpt>
      <trkpt lat="42.959645" lon="0.475244">
        <ele>1622.8</ele>
        <time>2013-03-19T11:30:31Z</time>
      </trkpt>
      <trkpt lat="42.959708" lon="0.475150">
        <ele>1620.9</ele>
        <time>2013-03-19T11:30:40Z</time>
      </trkpt>
      <trkpt lat="42.959773" lon="0.475055">
        <ele>1619.0</ele>
        <time>2013-03-19T11:30:49Z</time>
      </trkpt>
      <trkpt lat="42.959842" lon="0.474960">
        <ele>1617.6</ele>
        <time>2013-03-19T11:30:58Z</time>
      </trkpt>
      <trkpt lat="42.959914" lon="0.474870">
        <ele>1616.1</ele>
        <time>2013-03-19T11:31:07Z</time>
      </trkpt>
      <trkpt lat="42.959978" lon="0.474756">
        <ele>1615.6</ele>
        <time>2013-03-19T11:31:16Z</time>
      </trkpt>
      <trkpt lat="42.960027" lon="0.474639">
        <ele>1614.7</ele>
        <time>2013-03-19T11:31:25Z</time>
      </trkpt>
      <trkpt lat="42.960075" lon="0.474526">
        <ele>1615.2</ele>
        <time>2013-03-19T11:31:35Z</time>
      </trkpt>
      <trkpt lat="42.960132" lon="0.474427">
        <ele>1613.2</ele>
        <time>2013-03-19T11:31:45Z</time>
      </trkpt>
      <trkpt lat="42.960190" lon="0.474319">
        <ele>1611.3</ele>
        <time>2013-03-19T11:31:55Z</time>
      </trkpt>
      <trkpt lat="42.960237" lon="0.474211">
        <ele>1608.9</ele>
        <time>2013-03-19T11:32:05Z</time>
      </trkpt>
      <trkpt lat="42.960290" lon="0.474104">
        <ele>1606.5</ele>
        <time>2013-03-19T11:32:15Z</time>
      </trkpt>
      <trkpt lat="42.960355" lon="0.474000">
        <ele>1604.1</ele>
        <time>2013-03-19T11:32:25Z</time>
      </trkpt>
      <trkpt lat="42.960415" lon="0.473907">
        <ele>1602.7</ele>
        <time>2013-03-19T11:32:34Z</time>
      </trkpt>
      <trkpt lat="42.960475" lon="0.473804">
        <ele>1601.2</ele>
        <time>2013-03-19T11:32:43Z</time>
      </trkpt>
      <trkpt lat="42.960530" lon="0.473691">
        <ele>1598.8</ele>
        <time>2013-03-19T11:32:52Z</time>
      </trkpt>
      <trkpt lat="42.960597" lon="0.473585">
        <ele>1596.4</ele>
        <time>2013-03-19T11:33:01Z</time>
      </trkpt>
      <trkpt lat="42.960658" lon="0.473475">
        <ele>1595.9</ele>
        <time>2013-03-19T11:33:11Z</time>
      </trkpt>
      <trkpt lat="42.960711" lon="0.473363">
        <ele>1595.4</ele>
        <time>2013-03-19T11:33:20Z</time>
      </trkpt>
      <trkpt lat="42.960777" lon="0.473272">
        <ele>1595.0</ele>
        <time>2013-03-19T11:33:29Z</time>
      </trkpt>
      <trkpt lat="42.960843" lon="0.473186">
        <ele>1594.0</ele>
        <time>2013-03-19T11:33:38Z</time>
      </trkpt>
      <trkpt lat="42.960918" lon="0.473109">
        <ele>1593.0</ele>
        <time>2013-03-19T11:33:48Z</time>
      </trkpt>
      <trkpt lat="42.960967" lon="0.473058">
        <ele>1592.1</ele>
        <time>2013-03-19T11:34:46Z</time>
      </trkpt>
      <trkpt lat="42.960998" lon="0.472941">
        <ele>1590.6</ele>
        <time>2013-03-19T11:34:58Z</time>
      </trkpt>
      <trkpt lat="42.961056" lon="0.472837">
        <ele>1588.7</ele>
        <time>2013-03-19T11:35:08Z</time>
      </trkpt>
      <trkpt lat="42.961114" lon="0.472732">
        <ele>1587.8</ele>
        <time>2013-03-19T11:35:17Z</time>
      </trkpt>
      <trkpt lat="42.961179" lon="0.472637">
        <ele>1587.8</ele>
        <time>2013-03-19T11:35:26Z</time>
      </trkpt>
      <trkpt lat="42.961242" lon="0.472530">
        <ele>1587.8</ele>
        <time>2013-03-19T11:35:36Z</time>
      </trkpt>
      <trkpt lat="42.961291" lon="0.472411">
        <ele>1588.2</ele>
        <time>2013-03-19T11:35:46Z</time>
      </trkpt>
      <trkpt lat="42.961329" lon="0.472301">
        <ele>1588.2</ele>
        <time>2013-03-19T11:36:16Z</time>
      </trkpt>
      <trkpt lat="42.961374" lon="0.472195">
        <ele>1588.2</ele>
        <time>2013-03-19T11:36:26Z</time>
      </trkpt>
      <trkpt lat="42.961433" lon="0.472102">
        <ele>1588.2</ele>
        <time>2013-03-19T11:36:36Z</time>
      </trkpt>
      <trkpt lat="42.961452" lon="0.472023">
        <ele>1587.8</ele>
        <time>2013-03-19T11:38:08Z</time>
      </trkpt>
      <trkpt lat="42.961460" lon="0.471920">
        <ele>1585.3</ele>
        <time>2013-03-19T11:38:26Z</time>
      </trkpt>
      <trkpt lat="42.961534" lon="0.471845">
        <ele>1583.9</ele>
        <time>2013-03-19T11:38:39Z</time>
      </trkpt>
      <trkpt lat="42.961584" lon="0.471748">
        <ele>1582.0</ele>
        <time>2013-03-19T11:38:51Z</time>
      </trkpt>
      <trkpt lat="42.961625" lon="0.471712">
        <ele>1580.1</ele>
        <time>2013-03-19T11:39:50Z</time>
      </trkpt>
      <trkpt lat="42.961668" lon="0.471583">
        <ele>1576.7</ele>
        <time>2013-03-19T11:40:03Z</time>
      </trkpt>
      <trkpt lat="42.961699" lon="0.471463">
        <ele>1574.3</ele>
        <time>2013-03-19T11:40:16Z</time>
      </trkpt>
      <trkpt lat="42.961774" lon="0.471386">
        <ele>1573.3</ele>
        <time>2013-03-19T11:40:29Z</time>
      </trkpt>
      <trkpt lat="42.961857" lon="0.471314">
        <ele>1570.4</ele>
        <time>2013-03-19T11:40:43Z</time>
      </trkpt>
      <trkpt lat="42.961940" lon="0.471264">
        <ele>1568.1</ele>
        <time>2013-03-19T11:41:00Z</time>
      </trkpt>
      <trkpt lat="42.962033" lon="0.471248">
        <ele>1566.6</ele>
        <time>2013-03-19T11:41:10Z</time>
      </trkpt>
      <trkpt lat="42.962131" lon="0.471232">
        <ele>1565.2</ele>
        <time>2013-03-19T11:41:22Z</time>
      </trkpt>
      <trkpt lat="42.962226" lon="0.471209">
        <ele>1564.2</ele>
        <time>2013-03-19T11:41:32Z</time>
      </trkpt>
      <trkpt lat="42.962317" lon="0.471174">
        <ele>1563.2</ele>
        <time>2013-03-19T11:41:42Z</time>
      </trkpt>
      <trkpt lat="42.962413" lon="0.471144">
        <ele>1562.3</ele>
        <time>2013-03-19T11:41:52Z</time>
      </trkpt>
      <trkpt lat="42.962510" lon="0.471138">
        <ele>1560.8</ele>
        <time>2013-03-19T11:42:02Z</time>
        <name>Cul de la Serre</name>
      </trkpt>
      <trkpt lat="42.962578" lon="0.471116">
        <ele>1559.9</ele>
        <time>2013-03-19T11:42:52Z</time>
      </trkpt>
      <trkpt lat="42.962673" lon="0.471043">
        <ele>1561.3</ele>
        <time>2013-03-19T12:04:27Z</time>
      </trkpt>
      <trkpt lat="42.962761" lon="0.471016">
        <ele>1558.4</ele>
        <time>2013-03-19T12:04:42Z</time>
      </trkpt>
      <trkpt lat="42.962844" lon="0.470943">
        <ele>1556.0</ele>
        <time>2013-03-19T12:04:54Z</time>
      </trkpt>
      <trkpt lat="42.962938" lon="0.470903">
        <ele>1553.2</ele>
        <time>2013-03-19T12:05:05Z</time>
      </trkpt>
      <trkpt lat="42.963029" lon="0.470848">
        <ele>1550.3</ele>
        <time>2013-03-19T12:05:16Z</time>
      </trkpt>
      <trkpt lat="42.963120" lon="0.470813">
        <ele>1547.9</ele>
        <time>2013-03-19T12:05:26Z</time>
      </trkpt>
      <trkpt lat="42.963210" lon="0.470756">
        <ele>1544.5</ele>
        <time>2013-03-19T12:05:37Z</time>
      </trkpt>
      <trkpt lat="42.963292" lon="0.470729">
        <ele>1544.5</ele>
        <time>2013-03-19T12:05:47Z</time>
      </trkpt>
      <trkpt lat="42.963385" lon="0.470676">
        <ele>1540.2</ele>
        <time>2013-03-19T12:05:59Z</time>
      </trkpt>
      <trkpt lat="42.963462" lon="0.470600">
        <ele>1538.7</ele>
        <time>2013-03-19T12:06:09Z</time>
      </trkpt>
      <trkpt lat="42.963559" lon="0.470535">
        <ele>1537.8</ele>
        <time>2013-03-19T12:06:24Z</time>
      </trkpt>
      <trkpt lat="42.963641" lon="0.470478">
        <ele>1535.8</ele>
        <time>2013-03-19T12:06:35Z</time>
      </trkpt>
      <trkpt lat="42.963721" lon="0.470412">
        <ele>1532.0</ele>
        <time>2013-03-19T12:06:46Z</time>
      </trkpt>
      <trkpt lat="42.963815" lon="0.470339">
        <ele>1527.2</ele>
        <time>2013-03-19T12:07:00Z</time>
      </trkpt>
      <trkpt lat="42.963921" lon="0.470319">
        <ele>1523.3</ele>
        <time>2013-03-19T12:07:12Z</time>
      </trkpt>
      <trkpt lat="42.964022" lon="0.470247">
        <ele>1519.0</ele>
        <time>2013-03-19T12:07:27Z</time>
      </trkpt>
      <trkpt lat="42.964093" lon="0.470133">
        <ele>1514.2</ele>
        <time>2013-03-19T12:07:42Z</time>
      </trkpt>
      <trkpt lat="42.964195" lon="0.470050">
        <ele>1510.8</ele>
        <time>2013-03-19T12:07:55Z</time>
      </trkpt>
      <trkpt lat="42.964273" lon="0.469957">
        <ele>1506.5</ele>
        <time>2013-03-19T12:08:07Z</time>
      </trkpt>
      <trkpt lat="42.964390" lon="0.469955">
        <ele>1501.7</ele>
        <time>2013-03-19T12:08:21Z</time>
      </trkpt>
      <trkpt lat="42.964631" lon="0.469725">
        <ele>1491.6</ele>
        <time>2013-03-19T12:12:07Z</time>
      </trkpt>
      <trkpt lat="42.964704" lon="0.469601">
        <ele>1484.9</ele>
        <time>2013-03-19T12:12:27Z</time>
      </trkpt>
      <trkpt lat="42.964820" lon="0.469416">
        <ele>1478.2</ele>
        <time>2013-03-19T12:12:46Z</time>
      </trkpt>
      <trkpt lat="42.964912" lon="0.469322">
        <ele>1473.4</ele>
        <time>2013-03-19T12:13:00Z</time>
      </trkpt>
      <trkpt lat="42.965034" lon="0.469176">
        <ele>1469.0</ele>
        <time>2013-03-19T12:13:15Z</time>
      </trkpt>
      <trkpt lat="42.965151" lon="0.469090">
        <ele>1464.7</ele>
        <time>2013-03-19T12:13:37Z</time>
      </trkpt>
      <trkpt lat="42.965228" lon="0.469000">
        <ele>1459.4</ele>
        <time>2013-03-19T12:13:51Z</time>
      </trkpt>
      <trkpt lat="42.965350" lon="0.468887">
        <ele>1453.2</ele>
        <time>2013-03-19T12:14:09Z</time>
      </trkpt>
      <trkpt lat="42.965473" lon="0.468805">
        <ele>1447.9</ele>
        <time>2013-03-19T12:14:23Z</time>
      </trkpt>
      <trkpt lat="42.965581" lon="0.468719">
        <ele>1444.5</ele>
        <time>2013-03-19T12:14:34Z</time>
      </trkpt>
      <trkpt lat="42.965692" lon="0.468627">
        <ele>1441.2</ele>
        <time>2013-03-19T12:14:45Z</time>
      </trkpt>
      <trkpt lat="42.965785" lon="0.468543">
        <ele>1443.1</ele>
        <time>2013-03-19T12:14:57Z</time>
      </trkpt>
      <trkpt lat="42.965868" lon="0.468438">
        <ele>1434.9</ele>
        <time>2013-03-19T12:15:07Z</time>
      </trkpt>
      <trkpt lat="42.965965" lon="0.468384">
        <ele>1431.1</ele>
        <time>2013-03-19T12:15:19Z</time>
      </trkpt>
      <trkpt lat="42.966094" lon="0.468401">
        <ele>1429.6</ele>
        <time>2013-03-19T12:15:32Z</time>
      </trkpt>
      <trkpt lat="42.966275" lon="0.468482">
        <ele>1421.9</ele>
        <time>2013-03-19T12:15:51Z</time>
      </trkpt>
      <trkpt lat="42.966373" lon="0.468427">
        <ele>1419.0</ele>
        <time>2013-03-19T12:16:03Z</time>
      </trkpt>
      <trkpt lat="42.966451" lon="0.468338">
        <ele>1415.2</ele>
        <time>2013-03-19T12:16:14Z</time>
      </trkpt>
      <trkpt lat="42.966531" lon="0.468261">
        <ele>1411.8</ele>
        <time>2013-03-19T12:16:23Z</time>
      </trkpt>
      <trkpt lat="42.966654" lon="0.468226">
        <ele>1408.9</ele>
        <time>2013-03-19T12:16:33Z</time>
      </trkpt>
      <trkpt lat="42.966766" lon="0.468272">
        <ele>1405.1</ele>
        <time>2013-03-19T12:16:44Z</time>
      </trkpt>
      <trkpt lat="42.966866" lon="0.468237">
        <ele>1403.2</ele>
        <time>2013-03-19T12:16:56Z</time>
      </trkpt>
      <trkpt lat="42.966983" lon="0.468161">
        <ele>1400.8</ele>
        <time>2013-03-19T12:17:07Z</time>
      </trkpt>
      <trkpt lat="42.967107" lon="0.468125">
        <ele>1398.4</ele>
        <time>2013-03-19T12:17:17Z</time>
      </trkpt>
      <trkpt lat="42.967218" lon="0.468085">
        <ele>1395.5</ele>
        <time>2013-03-19T12:17:27Z</time>
      </trkpt>
      <trkpt lat="42.967344" lon="0.468065">
        <ele>1392.1</ele>
        <time>2013-03-19T12:17:38Z</time>
      </trkpt>
      <trkpt lat="42.967473" lon="0.468091">
        <ele>1388.8</ele>
        <time>2013-03-19T12:17:49Z</time>
      </trkpt>
      <trkpt lat="42.967605" lon="0.468062">
        <ele>1386.8</ele>
        <time>2013-03-19T12:18:00Z</time>
      </trkpt>
      <trkpt lat="42.967705" lon="0.468038">
        <ele>1385.4</ele>
        <time>2013-03-19T12:18:09Z</time>
      </trkpt>
      <trkpt lat="42.967810" lon="0.467999">
        <ele>1383.0</ele>
        <time>2013-03-19T12:18:18Z</time>
      </trkpt>
      <trkpt lat="42.967915" lon="0.467977">
        <ele>1381.1</ele>
        <time>2013-03-19T12:18:26Z</time>
      </trkpt>
      <trkpt lat="42.968013" lon="0.467944">
        <ele>1379.6</ele>
        <time>2013-03-19T12:18:34Z</time>
      </trkpt>
      <trkpt lat="42.968107" lon="0.467915">
        <ele>1377.7</ele>
        <time>2013-03-19T12:18:42Z</time>
      </trkpt>
      <trkpt lat="42.968186" lon="0.467886">
        <ele>1375.3</ele>
        <time>2013-03-19T12:18:50Z</time>
      </trkpt>
      <trkpt lat="42.968270" lon="0.467837">
        <ele>1372.9</ele>
        <time>2013-03-19T12:18:58Z</time>
      </trkpt>
      <trkpt lat="42.968362" lon="0.467793">
        <ele>1371.0</ele>
        <time>2013-03-19T12:19:06Z</time>
      </trkpt>
      <trkpt lat="42.968451" lon="0.467752">
        <ele>1369.5</ele>
        <time>2013-03-19T12:19:14Z</time>
      </trkpt>
      <trkpt lat="42.968542" lon="0.467717">
        <ele>1368.6</ele>
        <time>2013-03-19T12:19:22Z</time>
      </trkpt>
      <trkpt lat="42.968632" lon="0.467674">
        <ele>1366.2</ele>
        <time>2013-03-19T12:19:30Z</time>
      </trkpt>
      <trkpt lat="42.968701" lon="0.467603">
        <ele>1363.8</ele>
        <time>2013-03-19T12:19:41Z</time>
      </trkpt>
    </trkseg>
  </trk>
</gpx>

